Terminal Aerodrome Forecast
Issued by NWS

Home | Current Version | Previous Version | Text Only | Print | Product List | Glossary On
Versions: 1 2 3 4 5 6 7 8 9 10 11 12 13 14
000
FTUS44 KLZK 272300
TAFHRO
TAF
KHRO 272325Z 2800/2824 09007KT 1SM -SN BR SCT015 OVC030
      TEMPO 2800/2802 3SM -SN BR OVC015
     FM280200 08007KT P6SM OVC030
     FM281400 12007KT P6SM OVC050
     FM282000 13006KT 3SM -SN BR OVC030=

USA.gov is the U.S. government's official web portal to all federal, state and local government web resources and services.